Flight Track Log - Related Links

Times and Time Zones

All times are in EDT time to prevent confusion due to time zone crossing. See the N88JA flight status page for this flight to view local times or setup timezone preferences in your user account.

Time Position Orientation Groundspeed Altitude Reporting Facility
EDT Latitude Longitude Course Direction KTS MPH feet Rate Location/Type
Mon 04:26:01 PM 39.5792 -84.2289 130° Southeast 82 94 1,300  Level Indianapolis Center
Mon 04:27:23 PM 39.5664 -84.2089 130° Southeast 92 106 2,300 667 Climbing Indianapolis Center
Mon 04:28:25 PM 39.5794 -84.1744 64° Northeast 107 123 2,900 341 Climbing Indianapolis Center
Mon 04:29:26 PM 39.5944 -84.1375 62° Northeast 109 125 3,000 98 Climbing Indianapolis Center
Mon 04:30:28 PM 39.6161 -84.0911 59° Northeast 120 138 3,100 48 Climbing Indianapolis Center
Mon 04:31:30 PM 39.6408 -84.0642 40° Northeast 117 135 3,100  Level Indianapolis Center
Mon 04:32:29 PM 39.6694 -84.0375 36° Northeast 123 142 3,100 -48 Level Indianapolis Center
Mon 04:33:34 PM 39.6989 -84.0131 33° Northeast 123 142 3,000 -49 Descending Indianapolis Center
Mon 04:34:31 PM 39.7222 -83.9794 48° Northeast 127 146 3,000  Level Indianapolis Center
Mon 04:35:38 PM 39.7478 -83.9483 43° Northeast 125 144 3,000  Level Indianapolis Center
Mon 04:36:33 PM 39.7747 -83.9236 35° Northeast 123 142 3,000 48 Level Indianapolis Center
Mon 04:37:42 PM 39.7994 -83.8892 47° Northeast 123 142 3,100 50 Climbing Indianapolis Center
Mon 04:38:34 PM 39.8256 -83.8622 38° Northeast 122 140 3,100 112 Level Indianapolis Center
Mon 04:39:29 PM 39.8467 -83.8322 47° Northeast 121 139 3,300 250 Climbing Indianapolis Center
Mon 04:39:46 PM 39.8536 -83.8256 36° Northeast 121 139 3,400 492 Climbing Indianapolis Center
Mon 04:40:30 PM 39.8617 -83.7989 69° East 111 128 3,800 484 Climbing Indianapolis Center
Mon 04:40:48 PM 39.8569 -83.7919 132° Southeast 114 131 3,900 179 Climbing Indianapolis Center
Mon 04:41:37 PM 39.8436 -83.8156 234° Southwest 107 123 4,000 55 Climbing Indianapolis Center
Mon 04:42:38 PM 39.8386 -83.8558 261° West 117 135 4,000 50 Level Indianapolis Center
Mon 04:43:38 PM 39.8181 -83.8478 163° South 119 137 4,100 79 Climbing Indianapolis Center
Mon 04:43:54 PM 39.8211 -83.8419 56° Northeast 120 138 4,100 -98 Level Indianapolis Center
Mon 04:44:39 PM 39.8400 -83.8097 53° Northeast 125 144 4,000 -97 Descending Indianapolis Center
Mon 04:44:56 PM 39.8419 -83.8053 60° Northeast 123 142 4,000 90 Level Indianapolis Center
Mon 04:45:46 PM 39.8600 -83.8206 327° Northwest 137 158 4,100  Climbing Indianapolis Center
Mon 04:46:41 PM 39.8392 -83.8478 225° Southwest 110 127 4,000  Descending Indianapolis Center
Mon 04:47:00 PM 39.8319 -83.8553 219° Southwest 114 131 4,100  Climbing Indianapolis Center
Mon 04:47:48 PM 39.8236 -83.8322 115° Southeast 134 154 4,000 -175 Descending Indianapolis Center
Mon 04:48:43 PM 39.8519 -83.8167 23° Northeast 124 143 3,800 -316 Descending Indianapolis Center
Mon 04:49:04 PM 39.8617 -83.8108 25° Northeast 125 144 3,600 -627 Descending Indianapolis Center
Mon 04:49:50 PM 39.8750 -83.7869 54° Northeast 112 129 3,100 -581 Descending Indianapolis Center
Mon 04:50:06 PM 39.8781 -83.7786 64° Northeast 113 130 3,000 -98 Descending Indianapolis Center
Mon 04:50:51 PM 39.8942 -83.7569 46° Northeast 111 128 3,000  Level Indianapolis Center
Mon 04:51:08 PM 39.9022 -83.7458 47° Northeast 111 128 3,000  Level Indianapolis Center
Mon 04:51:39 PM 39.9106 -83.7344 46° Northeast 102 117 3,000  Level Indianapolis Center
Mon 04:52:10 PM 39.9172 -83.7203 58° Northeast 106 122 3,000  Level Indianapolis Center
Mon 04:52:40 PM 39.9256 -83.7008 61° Northeast 108 124 3,000  Level Indianapolis Center
Mon 04:53:12 PM 39.9342 -83.6875 50° Northeast 107 123 3,000  Level Indianapolis Center
Mon 04:53:41 PM 39.9464 -83.6736 41° Northeast 102 117 3,000  Level Indianapolis Center
Mon 04:54:14 PM 39.9542 -83.6622 48° Northeast 104 120 3,000  Level Indianapolis Center
Mon 04:54:42 PM 39.9531 -83.6392 94° East 104 120 3,000 97 Level Indianapolis Center
Mon 04:55:16 PM 39.9569 -83.6175 77° East 104 120 3,100 98 Climbing Indianapolis Center
Mon 04:55:43 PM 39.9694 -83.6167 North 95 109 3,100  Level Indianapolis Center
Mon 04:56:18 PM 39.9733 -83.6336 287° West 103 119 3,100 -90 Level Indianapolis Center
Mon 04:56:50 PM 39.9611 -83.6456 217° Southwest 95 109 3,000 -290 Descending Indianapolis Center
Mon 04:57:20 PM 39.9517 -83.6553 218° Southwest 99 114 2,800 -200 Descending Indianapolis Center
Mon 04:57:50 PM 39.9425 -83.6703 231° Southwest 95 109 2,800  Level Indianapolis Center
Mon 04:58:22 PM 39.9339 -83.6800 221° Southwest 95 109 2,800  Level Indianapolis Center
Mon 04:58:45 PM 39.9261 -83.6928 232° Southwest 92 106 2,800  Level Indianapolis Center
Mon 04:59:24 PM 39.9208 -83.7083 246° West 92 106 2,800  Level Indianapolis Center
Mon 04:59:46 PM 39.9175 -83.7244 255° West 92 106 2,800  Level Indianapolis Center
Mon 05:00:26 PM 39.9092 -83.7375 230° Southwest 91 105 2,800 -269 Level Indianapolis Center
Mon 05:00:53 PM 39.8967 -83.7517 221° Southwest 92 106 2,500 -484 Descending Indianapolis Center
Mon 05:01:28 PM 39.8897 -83.7600 223° Southwest 92 106 2,300 -495 Descending Indianapolis Center
Mon 05:02:30 PM 39.8750 -83.7853 233° Southwest 82 94 1,700 -519 Descending Indianapolis Center
Mon 05:02:49 PM 39.8703 -83.7947 237° Southwest 76 87 1,600 -194 Descending Indianapolis Center
Mon 05:03:32 PM 39.8606 -83.8056 221° Southwest 77 89 1,500  Descending Indianapolis Center
Mon 05:03:49 PM 39.8564 -83.8144 239° Southwest 114 131 1,600  Climbing Indianapolis Center
Mon 05:04:34 PM 39.8478 -83.8292 233° Southwest 78 90 1,500  Descending Indianapolis Center
Mon 05:04:50 PM 39.8442 -83.8375 241° Southwest 94 108 1,600 97 Climbing Indianapolis Center
Mon 05:05:36 PM 39.8342 -83.8519 228° Southwest 79 91 1,600 295 Level Indianapolis Center
Mon 05:05:51 PM 39.8281 -83.8572 214° Southwest 78 90 1,900 677 Climbing Indianapolis Center
Mon 05:06:38 PM 39.8153 -83.8417 137° Southeast 90 104 2,300 550 Climbing Indianapolis Center
Mon 05:07:40 PM 39.8119 -83.8050 97° East 99 114 2,900 519 Climbing Indianapolis Center
Mon 05:07:59 PM 39.8100 -83.7897 99° East 110 127 3,000 97 Climbing Indianapolis Center
Mon 05:08:42 PM 39.8103 -83.7633 89° East 106 122 3,000 -57 Level Indianapolis Center
Mon 05:09:44 PM 39.8192 -83.7122 77° East 118 136 2,900 -49 Descending Indianapolis Center
Mon 05:10:45 PM 39.8369 -83.6756 58° Northeast 122 140 2,900  Level Indianapolis Center
Mon 05:11:47 PM 39.8603 -83.6456 45° Northeast 119 137 2,900 45 Level Indianapolis Center
Mon 05:12:57 PM 39.8864 -83.6089 47° Northeast 115 132 3,000  Climbing Indianapolis Center
Mon 05:13:51 PM 39.9050 -83.5808 49° Northeast 118 136 2,900  Descending Indianapolis Center
Mon 05:14:53 PM 39.9261 -83.5469 51° Northeast 118 136 3,000  Climbing Indianapolis Center
Mon 05:15:55 PM 39.9508 -83.5694 325° Northwest 114 131 2,900  Descending Indianapolis Center
Mon 05:16:54 PM 39.9428 -83.6078 255° West 99 114 3,000  Climbing Indianapolis Center
Mon 05:17:55 PM 39.9422 -83.6458 269° West 107 123 2,900 -49 Descending Indianapolis Center
Mon 05:18:56 PM 39.9314 -83.6772 246° West 100 115 2,900 -47 Level Indianapolis Center
Mon 05:20:02 PM 39.9144 -83.7081 234° Southwest 102 117 2,800 -91 Descending Indianapolis Center

Login

Don't have an account? Register now (free) for customized features, flight alerts, and more!